Time;durP1;ratioP1;P1;durP2;ratioP2;P2;SDS_P1;SDS_P2;PMS_P1;PMS_P2;Temp;Humidity;BMP_temperature;BMP_pressure;BME280_temperature;BME280_humidity;BME280_pressure;Samples;Min_cycle;Max_cycle;Signal;HPM_P1;HPM_P2
2022/07/26 00:00:07;;;;;;;14.52;4.18;;;;;;;15.90;100.00;156515.50;4977422;28;20041;-74
2022/07/26 00:02:33;;;;;;;15.07;3.50;;;;;;;15.83;100.00;156498.72;4985228;28;20074;-74
2022/07/26 00:04:58;;;;;;;18.73;4.38;;;;;;;15.77;100.00;156483.31;4980935;28;20100;-74
2022/07/26 00:07:24;;;;;;;18.85;4.18;;;;;;;15.78;100.00;156485.84;5003454;28;20086;-73
2022/07/26 00:09:49;;;;;;;11.73;3.63;;;;;;;15.74;100.00;156475.56;4988229;28;20113;-73
2022/07/26 00:12:15;;;;;;;12.10;3.47;;;;;;;15.71;100.00;156467.81;5002278;28;20118;-73
2022/07/26 00:14:41;;;;;;;15.40;3.83;;;;;;;15.70;100.00;156466.50;4981762;28;20382;-73
2022/07/26 00:17:07;;;;;;;14.48;4.25;;;;;;;15.70;100.00;156465.22;4981842;28;20490;-73
2022/07/26 00:19:32;;;;;;;23.95;4.18;;;;;;;15.73;100.00;156472.97;4987317;28;20092;-73
2022/07/26 00:24:42;;;;;;;17.50;3.78;;;;;;;15.77;100.00;156483.31;4999194;28;20043;-73
2022/07/26 00:27:27;;;;;;;15.65;4.35;;;;;;;15.70;100.00;156466.50;4996369;28;20155;-74
2022/07/26 00:29:52;;;;;;;13.93;3.92;;;;;;;15.68;100.00;156460.09;4983453;28;20476;-73
2022/07/26 00:32:18;;;;;;;11.95;4.45;;;;;;;15.65;100.00;156453.66;4970950;28;20082;-73
2022/07/26 00:34:43;;;;;;;17.95;5.10;;;;;;;15.65;100.00;156452.34;4973002;28;20846;-74
2022/07/26 00:37:09;;;;;;;16.15;4.45;;;;;;;15.62;100.00;156445.94;4968764;28;20042;-73
2022/07/26 00:39:35;;;;;;;13.27;4.07;;;;;;;15.57;100.00;156433.03;4978574;28;20022;-74
2022/07/26 00:42:00;;;;;;;14.18;4.43;;;;;;;15.58;100.00;156436.91;4981576;28;20041;-74
2022/07/26 00:44:37;;;;;;;16.20;4.50;;;;;;;15.55;100.00;156427.91;4992635;28;20044;-73
2022/07/26 00:47:03;;;;;;;22.67;4.90;;;;;;;15.54;100.00;156426.63;4972695;28;20049;-73
2022/07/26 00:49:29;;;;;;;16.00;4.45;;;;;;;15.54;100.00;156426.63;4973918;28;20049;-73
2022/07/26 00:51:56;;;;;;;16.00;4.50;;;;;;;15.52;100.00;156421.50;4988105;28;20034;-73
2022/07/26 00:54:22;;;;;;;14.68;4.22;;;;;;;15.52;100.00;156420.16;4976053;28;20131;-73
2022/07/26 00:56:49;;;;;;;10.18;3.88;;;;;;;15.54;100.00;156426.63;4990835;28;20132;-73
2022/07/26 00:59:15;;;;;;;14.27;4.97;;;;;;;15.69;100.00;156463.94;4987529;28;20145;-73
2022/07/26 01:01:41;;;;;;;12.73;4.38;;;;;;;15.76;100.00;156480.72;5003400;28;20042;-74
2022/07/26 01:04:06;;;;;;;18.88;4.75;;;;;;;15.81;100.00;156492.31;4987482;28;20042;-74
2022/07/26 01:06:36;;;;;;;15.52;5.25;;;;;;;15.77;100.00;156484.56;5003655;28;20471;-74
2022/07/26 01:09:05;;;;;;;14.07;4.57;;;;;;;15.73;100.00;156472.97;4979731;28;20033;-74
2022/07/26 01:11:33;;;;;;;14.02;4.57;;;;;;;15.67;100.00;156458.81;4986018;28;20039;-75
2022/07/26 01:14:00;;;;;;;14.15;4.95;;;;;;;15.64;100.00;156451.06;4978790;28;20122;-74
2022/07/26 01:16:25;;;;;;;19.20;4.97;;;;;;;15.58;100.00;156435.63;4979376;28;20438;-73
2022/07/26 01:18:51;;;;;;;13.95;4.38;;;;;;;15.56;100.00;156431.78;4996459;28;20313;-74
2022/07/26 01:21:17;;;;;;;10.63;4.03;;;;;;;15.51;100.00;156418.88;4977250;28;20858;-74
2022/07/26 01:23:43;;;;;;;11.52;4.45;;;;;;;15.48;100.00;156411.19;4975000;28;20050;-72
2022/07/26 01:26:09;;;;;;;11.43;4.45;;;;;;;15.41;100.00;156393.19;4979763;28;20089;-73
2022/07/26 01:28:36;;;;;;;11.57;4.30;;;;;;;15.36;100.00;156380.28;4978454;28;20034;-74
2022/07/26 01:31:04;;;;;;;10.68;4.13;;;;;;;15.28;100.00;156359.72;4973099;28;20492;-74
2022/07/26 01:33:32;;;;;;;17.75;4.38;;;;;;;15.23;100.00;156346.84;4978953;28;20047;-73
2022/07/26 01:35:59;;;;;;;11.60;4.10;;;;;;;15.17;100.00;156332.69;4984459;28;20504;-74
2022/07/26 01:38:26;;;;;;;14.63;4.30;;;;;;;15.12;100.00;156321.09;4985171;28;20042;-73
2022/07/26 01:40:52;;;;;;;11.43;4.25;;;;;;;15.06;100.00;156305.66;4992386;28;20145;-73
2022/07/26 01:43:18;;;;;;;9.45;4.10;;;;;;;14.97;100.00;156283.81;4978375;28;20049;-73
2022/07/26 01:45:46;;;;;;;14.88;4.93;;;;;;;14.94;100.00;156276.09;4989775;28;20042;-73
2022/07/26 01:48:12;;;;;;;18.05;4.95;;;;;;;14.90;100.00;156264.47;4986135;28;20050;-74
2022/07/26 01:50:38;;;;;;;12.45;4.80;;;;;;;14.79;100.00;156238.78;4965833;28;20049;-74
2022/07/26 01:53:04;;;;;;;10.20;4.50;;;;;;;14.75;100.00;156228.50;4969921;28;20672;-74
2022/07/26 01:55:30;;;;;;;15.73;4.78;;;;;;;14.70;100.00;156215.63;5003575;28;20038;-74
2022/07/26 01:57:56;;;;;;;12.52;4.18;;;;;;;14.71;100.00;156216.91;5000810;28;20041;-74
2022/07/26 02:00:21;;;;;;;17.25;4.28;;;;;;;14.66;100.00;156205.34;4997721;28;20046;-75
2022/07/26 02:02:47;;;;;;;12.48;4.78;;;;;;;14.57;100.00;156183.47;4970561;28;20030;-74
2022/07/26 02:05:13;;;;;;;20.05;4.43;;;;;;;14.55;100.00;156178.28;4976577;28;20038;-74
2022/07/26 02:07:41;;;;;;;12.77;4.07;;;;;;;14.53;100.00;156173.13;4986846;28;20053;-74
2022/07/26 02:10:09;;;;;;;15.55;4.60;;;;;;;14.53;100.00;156171.84;4986021;28;20033;-74
2022/07/26 02:12:35;;;;;;;13.45;4.05;;;;;;;14.48;100.00;156158.97;4961816;28;20511;-75
2022/07/26 02:15:03;;;;;;;10.73;4.03;;;;;;;14.45;100.00;156152.56;4980353;28;20042;-74
2022/07/26 02:17:28;;;;;;;12.43;4.15;;;;;;;14.37;100.00;156131.97;4982277;28;20798;-75
2022/07/26 02:19:54;;;;;;;13.15;4.35;;;;;;;14.44;100.00;156148.69;4970261;28;20158;-74
2022/07/26 02:22:20;;;;;;;15.30;4.07;;;;;;;14.49;100.00;156162.84;4985754;28;20038;-74
2022/07/26 02:24:47;;;;;;;13.85;3.92;;;;;;;14.52;100.00;156170.59;5001738;28;20049;-75
2022/07/26 02:27:13;;;;;;;13.25;4.18;;;;;;;14.54;100.00;156175.72;4986154;28;21066;-74
2022/07/26 02:29:38;;;;;;;13.13;4.15;;;;;;;14.66;100.00;156204.06;4986037;28;20042;-74
2022/07/26 02:32:05;;;;;;;14.18;3.72;;;;;;;14.73;100.00;156223.34;4991715;28;20096;-73
2022/07/26 02:34:31;;;;;;;13.20;4.30;;;;;;;14.81;100.00;156242.66;4986529;28;20483;-74
2022/07/26 02:36:57;;;;;;;14.50;4.15;;;;;;;14.84;100.00;156250.34;4984306;28;20042;-74
2022/07/26 02:39:29;;;;;;;10.65;4.15;;;;;;;14.81;100.00;156241.38;4973164;28;21236;-74
2022/07/26 02:41:59;;;;;;;11.98;3.75;;;;;;;14.87;100.00;156256.78;4983570;28;20077;-74
2022/07/26 02:44:26;;;;;;;16.95;4.18;;;;;;;14.92;100.00;156270.94;4986228;28;20487;-72
2022/07/26 02:46:52;;;;;;;12.18;4.30;;;;;;;14.86;100.00;156254.19;4982724;28;20064;-75
2022/07/26 02:49:19;;;;;;;12.70;4.18;;;;;;;14.83;100.00;156246.50;5000920;28;20409;-74
2022/07/26 02:51:45;;;;;;;15.45;4.20;;;;;;;14.75;100.00;156228.50;5001091;28;20062;-73
2022/07/26 02:54:12;;;;;;;16.08;3.70;;;;;;;14.73;100.00;156223.34;4971342;28;20048;-74
2022/07/26 02:56:37;;;;;;;16.52;3.50;;;;;;;14.70;100.00;156215.63;4986375;28;20406;-73
2022/07/26 02:59:03;;;;;;;16.95;4.15;;;;;;;14.78;100.00;156236.19;4964913;28;20039;-73
2022/07/26 03:01:29;;;;;;;15.63;3.88;;;;;;;14.67;100.00;156207.88;4972072;28;20645;-73
2022/07/26 03:03:55;;;;;;;15.10;4.30;;;;;;;14.68;100.00;156210.47;5004544;28;20038;-74
2022/07/26 03:06:20;;;;;;;13.05;4.13;;;;;;;14.72;100.00;156219.50;4987420;28;20450;-74
2022/07/26 03:08:47;;;;;;;14.68;4.07;;;;;;;14.87;100.00;156258.06;4985186;28;20042;-73
2022/07/26 03:11:13;;;;;;;12.82;4.00;;;;;;;14.84;100.00;156249.06;4997823;28;20170;-74
2022/07/26 03:13:39;;;;;;;13.43;4.05;;;;;;;14.90;100.00;156264.47;4966472;28;20126;-74
2022/07/26 03:16:06;;;;;;;13.57;3.58;;;;;;;14.97;100.00;156283.81;4981624;28;20736;-73
2022/07/26 03:18:32;;;;;;;22.35;5.43;;;;;;;14.98;100.00;156286.38;4984879;28;20088;-74
2022/07/26 03:20:58;;;;;;;19.95;4.47;;;;;;;15.05;100.00;156303.13;4985765;28;20034;-74
2022/07/26 03:23:23;;;;;;;15.38;3.92;;;;;;;15.10;100.00;156314.69;4983836;28;20037;-74
2022/07/26 03:25:49;;;;;;;14.43;4.53;;;;;;;15.10;100.00;156315.94;4982836;28;20530;-74
2022/07/26 03:28:14;;;;;;;8.95;3.47;;;;;;;15.15;100.00;156327.56;5006008;28;20553;-74
2022/07/26 03:30:40;;;;;;;18.38;4.00;;;;;;;15.13;100.00;156322.41;4971889;28;20046;-73
2022/07/26 03:33:06;;;;;;;19.15;4.32;;;;;;;15.21;100.00;156341.72;4990990;28;20038;-74
2022/07/26 03:35:32;;;;;;;12.80;3.60;;;;;;;15.17;100.00;156333.97;4983218;28;20105;-74
2022/07/26 03:37:57;;;;;;;10.77;3.80;;;;;;;15.15;100.00;156328.81;4984552;28;20050;-74
2022/07/26 03:40:23;;;;;;;15.88;3.70;;;;;;;15.21;100.00;156342.97;4988070;28;20031;-73
2022/07/26 03:42:50;;;;;;;20.40;3.95;;;;;;;15.19;100.00;156337.84;4982207;28;20034;-73
2022/07/26 03:45:16;;;;;;;15.95;3.92;;;;;;;15.16;100.00;156330.09;4987850;28;20042;-74
2022/07/26 03:47:42;;;;;;;12.15;3.90;;;;;;;15.20;100.00;156340.44;4984306;28;20533;-74
2022/07/26 03:50:09;;;;;;;18.80;3.97;;;;;;;15.17;100.00;156332.69;4989601;28;20818;-74
2022/07/26 03:52:35;;;;;;;13.25;4.00;;;;;;;15.15;100.00;156328.81;4991108;28;20037;-73
2022/07/26 03:56:27;;;;;;;17.15;4.68;;;;;;;15.16;100.00;156330.09;4984078;28;20090;-74
2022/07/26 03:57:47;;;;;;;13.18;3.75;;;;;;;15.20;100.00;156340.44;4979363;28;20125;-74
2022/07/26 04:00:13;;;;;;;19.35;4.43;;;;;;;15.22;100.00;156345.56;5001134;28;20523;-74
2022/07/26 04:02:39;;;;;;;20.58;5.43;;;;;;;15.34;100.00;156375.16;4987729;28;20026;-74
2022/07/26 04:05:05;;;;;;;18.33;4.68;;;;;;;15.34;100.00;156376.44;4984380;28;20244;-74
2022/07/26 04:07:31;;;;;;;19.33;4.68;;;;;;;15.44;100.00;156399.59;4973962;28;20034;-74
2022/07/26 04:09:56;;;;;;;14.02;5.00;;;;;;;15.48;100.00;156411.19;4987638;28;20039;-74
2022/07/26 04:12:22;;;;;;;19.17;5.35;;;;;;;15.47;100.00;156407.34;4982645;28;20364;-73
2022/07/26 04:14:48;;;;;;;18.33;4.85;;;;;;;15.49;100.00;156412.47;5001271;28;20089;-73
2022/07/26 04:17:13;;;;;;;18.80;5.35;;;;;;;15.51;100.00;156418.88;5004768;28;20451;-74
2022/07/26 04:19:39;;;;;;;18.90;5.85;;;;;;;15.50;100.00;156416.34;4985160;28;20096;-74
2022/07/26 04:22:05;;;;;;;19.35;5.22;;;;;;;15.55;100.00;156429.19;4975024;28;20034;-74
2022/07/26 04:24:31;;;;;;;17.27;5.28;;;;;;;15.63;100.00;156447.19;4992752;28;20505;-74
2022/07/26 04:26:56;;;;;;;23.92;5.63;;;;;;;15.57;100.00;156434.31;4986350;28;20455;-74
2022/07/26 04:29:22;;;;;;;17.73;5.78;;;;;;;15.61;100.00;156443.34;4987219;28;20118;-73
2022/07/26 04:31:47;;;;;;;24.85;5.63;;;;;;;15.61;100.00;156443.34;4976615;28;20039;-73
2022/07/26 04:34:13;;;;;;;28.05;6.10;;;;;;;15.60;100.00;156439.50;4989236;28;20414;-73
2022/07/26 04:36:39;;;;;;;23.90;5.70;;;;;;;15.62;100.00;156444.66;4991840;28;20154;-73
2022/07/26 04:39:04;;;;;;;17.30;5.47;;;;;;;15.65;100.00;156453.66;4982482;28;20039;-73
2022/07/26 04:41:30;;;;;;;19.95;5.10;;;;;;;15.68;100.00;156461.34;4987626;28;20038;-74
2022/07/26 04:43:56;;;;;;;21.48;5.28;;;;;;;15.73;100.00;156474.28;4987503;28;20113;-74
2022/07/26 04:46:23;;;;;;;20.45;5.25;;;;;;;15.88;100.00;156511.63;4983555;28;20045;-74
2022/07/26 04:48:49;;;;;;;24.52;5.95;;;;;;;15.91;100.00;156519.31;5002399;28;20042;-73
2022/07/26 04:51:15;;;;;;;20.45;5.18;;;;;;;15.96;100.00;156530.91;5001258;28;20046;-73
2022/07/26 04:53:40;;;;;;;18.45;5.45;;;;;;;15.96;100.00;156532.19;4980538;28;20050;-74
2022/07/26 04:56:06;;;;;;;27.73;5.50;;;;;;;15.98;100.00;156534.78;4994427;28;20039;-73
2022/07/26 04:58:32;;;;;;;20.85;5.43;;;;;;;16.05;100.00;156554.09;4987069;28;20038;-72
2022/07/26 05:00:58;;;;;;;26.42;6.95;;;;;;;16.19;100.00;156588.84;4984371;28;20030;-73
2022/07/26 05:03:24;;;;;;;20.10;5.43;;;;;;;16.20;100.00;156590.09;4986140;28;20487;-72
2022/07/26 05:05:50;;;;;;;15.98;5.60;;;;;;;16.23;100.00;156597.84;4967332;28;20049;-73
2022/07/26 05:08:15;;;;;;;26.48;5.65;;;;;;;16.19;100.00;156588.84;4989098;28;20152;-73
2022/07/26 05:10:41;;;;;;;16.02;5.30;;;;;;;16.15;100.00;156578.53;5000867;28;20522;-73
2022/07/26 05:13:07;;;;;;;18.90;5.60;;;;;;;16.17;100.00;156583.69;4988368;28;20041;-72
2022/07/26 05:15:35;;;;;;;17.27;5.60;;;;;;;16.27;100.00;156609.41;4979316;28;20038;-71
2022/07/26 05:18:03;;;;;;;17.55;5.70;;;;;;;16.24;100.00;156600.44;4985643;28;20068;-72
2022/07/26 05:20:29;;;;;;;24.20;6.30;;;;;;;16.24;100.00;156600.44;4980237;28;20026;-73
2022/07/26 05:22:56;;;;;;;18.83;5.10;;;;;;;16.25;100.00;156604.28;4986437;28;20392;-74
2022/07/26 05:25:24;;;;;;;19.20;5.00;;;;;;;16.33;100.00;156624.91;5002424;28;20804;-72
2022/07/26 05:27:51;;;;;;;17.80;5.38;;;;;;;16.38;100.00;156636.47;4981777;28;20138;-74
2022/07/26 05:30:16;;;;;;;19.42;5.50;;;;;;;16.39;100.00;156637.75;4986664;28;20069;-73
2022/07/26 05:32:45;;;;;;;17.00;5.60;;;;;;;16.40;100.00;156641.59;4976248;28;20066;-74
2022/07/26 05:35:11;;;;;;;23.45;5.57;;;;;;;16.44;100.00;156650.63;5004195;28;20054;-74
2022/07/26 05:37:37;;;;;;;17.67;5.45;;;;;;;16.43;100.00;156649.34;4989666;28;20483;-73
2022/07/26 05:40:07;;;;;;;21.65;5.65;;;;;;;16.37;100.00;156633.91;4989833;28;20464;-73
2022/07/26 05:42:32;;;;;;;19.15;5.97;;;;;;;16.38;100.00;156636.47;4977512;28;20475;-73
2022/07/26 05:44:58;;;;;;;17.58;5.38;;;;;;;16.41;100.00;156642.94;4999893;28;20058;-73
2022/07/26 05:47:24;;;;;;;21.25;5.78;;;;;;;16.50;100.00;156667.38;4997240;28;20395;-74
2022/07/26 05:49:50;;;;;;;17.63;6.00;;;;;;;16.64;100.00;156702.13;4986772;28;20049;-73
2022/07/26 05:52:15;;;;;;;18.85;5.70;;;;;;;16.59;100.00;156689.25;4990394;28;20039;-72
2022/07/26 05:54:41;;;;;;;17.77;6.40;;;;;;;16.65;100.00;156703.41;5001339;28;20392;-75
2022/07/26 05:57:08;;;;;;;18.05;5.18;;;;;;;16.47;100.00;156658.38;5006056;28;20035;-76
2022/07/26 05:59:36;;;;;;;14.25;4.28;;;;;;;16.29;100.00;156614.59;5002109;28;20140;-75
2022/07/26 06:02:01;;;;;;;12.73;3.67;;;;;;;16.21;100.00;156592.72;4991239;28;20073;-73
2022/07/26 06:04:27;;;;;;;11.68;2.95;;;;;;;16.10;100.00;156565.66;4986165;28;20919;-75
2022/07/26 06:06:54;;;;;;;9.05;2.90;;;;;;;16.12;100.00;156570.81;4979928;28;20046;-72
2022/07/26 06:09:20;;;;;;;7.70;2.95;;;;;;;16.04;100.00;156550.22;4973007;28;20041;-75
2022/07/26 06:11:46;;;;;;;6.22;3.15;;;;;;;16.07;100.00;156559.25;4973824;28;20031;-74
2022/07/26 06:14:11;;;;;;;13.35;3.53;;;;;;;15.95;100.00;156529.66;4988164;28;20038;-75
2022/07/26 06:16:37;;;;;;;10.18;4.05;;;;;;;15.97;100.00;156533.47;4983954;28;20045;-74
2022/07/26 06:19:02;;;;;;;10.95;4.03;;;;;;;15.95;100.00;156528.31;4969043;28;20030;-75
2022/07/26 06:21:28;;;;;;;10.40;3.40;;;;;;;15.94;100.00;156525.78;4951298;28;20083;-75
2022/07/26 06:23:53;;;;;;;12.38;3.53;;;;;;;16.04;100.00;156551.50;4988767;28;20045;-75
2022/07/26 06:26:19;;;;;;;10.95;3.55;;;;;;;16.17;100.00;156582.41;4984649;28;20570;-75
2022/07/26 06:28:45;;;;;;;11.38;3.80;;;;;;;16.19;100.00;156588.84;4955095;28;20046;-74
2022/07/26 06:31:10;;;;;;;10.82;4.22;;;;;;;16.24;100.00;156600.44;4968939;28;20034;-75
2022/07/26 06:33:36;;;;;;;13.02;3.60;;;;;;;16.26;100.00;156606.88;5007240;28;20399;-74
2022/07/26 06:36:02;;;;;;;10.65;3.90;;;;;;;16.23;100.00;156599.13;4994085;28;20092;-74
2022/07/26 06:38:28;;;;;;;9.32;3.67;;;;;;;16.27;100.00;156609.41;4988454;28;20073;-74
2022/07/26 06:40:53;;;;;;;10.35;3.78;;;;;;;16.38;100.00;156635.19;4982891;28;20037;-74
2022/07/26 06:43:19;;;;;;;11.65;3.70;;;;;;;16.43;100.00;156648.06;4982752;28;20046;-73
2022/07/26 06:45:45;;;;;;;7.47;3.50;;;;;;;16.59;100.00;156689.25;4983806;28;20460;-74
2022/07/26 06:48:10;;;;;;;16.20;3.45;;;;;;;16.70;100.00;156717.56;4972071;28;20049;-73
2022/07/26 06:50:36;;;;;;;9.70;3.03;;;;;;;16.72;100.00;156721.44;4985369;28;20719;-74
2022/07/26 06:53:02;;;;;;;8.85;2.90;;;;;;;16.89;100.00;156764.00;4986898;28;20031;-76
2022/07/26 06:55:27;;;;;;;6.25;2.85;;;;;;;17.12;100.00;156821.94;4958494;28;20057;-75
2022/07/26 06:57:53;;;;;;;10.93;2.92;;;;;;;17.28;100.00;156861.91;4970711;28;20038;-75
2022/07/26 07:00:19;;;;;;;8.45;2.75;;;;;;;17.26;100.00;156856.75;4984815;28;20051;-74
2022/07/26 07:02:45;;;;;;;7.35;2.20;;;;;;;17.06;100.00;156807.78;4993531;28;20112;-74
2022/07/26 07:05:11;;;;;;;9.25;2.10;;;;;;;17.15;100.00;156828.41;4985905;28;20503;-74
2022/07/26 07:07:37;;;;;;;12.10;2.50;;;;;;;17.41;100.00;156895.38;5002554;28;20038;-74
2022/07/26 07:10:04;;;;;;;8.23;2.13;;;;;;;17.42;100.00;156896.66;4979313;28;20034;-73
2022/07/26 07:12:30;;;;;;;7.55;1.95;;;;;;;17.21;100.00;156845.13;4964591;28;20042;-72
2022/07/26 07:14:55;;;;;;;5.60;2.08;;;;;;;16.91;100.00;156770.47;4994980;28;20080;-74
2022/07/26 07:17:21;;;;;;;5.35;1.95;;;;;;;16.81;100.00;156743.34;4981406;28;20080;-73
2022/07/26 07:19:47;;;;;;;7.50;2.30;;;;;;;16.63;100.00;156698.25;4982599;28;20026;-74
2022/07/26 07:22:13;;;;;;;8.98;1.90;;;;;;;16.55;100.00;156678.94;4981007;28;20050;-74
2022/07/26 07:24:39;;;;;;;6.55;1.70;;;;;;;16.44;100.00;156651.91;4983193;28;20046;-74
2022/07/26 07:27:05;;;;;;;4.72;1.40;;;;;;;16.51;100.00;156668.66;5000045;28;20069;-74
2022/07/26 07:29:31;;;;;;;3.67;0.90;;;;;;;16.50;100.00;156666.06;4970587;28;20073;-74
2022/07/26 07:31:56;;;;;;;8.13;1.20;;;;;;;16.43;100.00;156648.06;4989561;28;20073;-75
2022/07/26 07:34:22;;;;;;;3.40;0.80;;;;;;;16.51;100.00;156669.94;4974969;28;20042;-75
2022/07/26 07:36:49;;;;;;;4.40;0.65;;;;;;;16.71;100.00;156718.91;4983822;28;20060;-74
2022/07/26 07:39:15;;;;;;;10.10;1.20;;;;;;;16.92;100.00;156773.00;4988285;28;20559;-76
2022/07/26 07:41:42;;;;;;;5.60;1.10;;;;;;;16.81;100.00;156743.34;4985082;28;20129;-74
2022/07/26 07:44:07;;;;;;;7.40;1.20;;;;;;;16.97;100.00;156784.63;4968606;28;20129;-75
2022/07/26 07:46:33;;;;;;;6.78;1.30;;;;;;;17.16;100.00;156832.28;4974400;28;20128;-75
2022/07/26 07:48:59;;;;;;;5.38;1.20;;;;;;;17.26;100.00;156858.03;4990677;28;20026;-74
2022/07/26 07:51:26;;;;;;;4.43;1.15;;;;;;;17.20;100.00;156842.56;5005512;28;20034;-75
2022/07/26 07:53:52;;;;;;;8.77;1.45;;;;;;;16.96;100.00;156780.75;4989093;28;20113;-74
2022/07/26 07:56:18;;;;;;;6.38;1.20;;;;;;;16.52;100.00;156671.25;4989084;28;20661;-74
2022/07/26 07:58:43;;;;;;;5.78;1.05;;;;;;;16.23;100.00;156597.84;5009515;28;20789;-75
2022/07/26 08:01:09;;;;;;;5.65;0.80;;;;;;;15.88;100.00;156510.28;4986239;28;20023;-74
2022/07/26 08:03:35;;;;;;;3.55;1.20;;;;;;;15.89;100.00;156514.16;4985665;28;20046;-74
2022/07/26 08:06:04;;;;;;;5.28;1.50;;;;;;;15.87;100.00;156507.75;4985974;28;20162;-74
2022/07/26 08:08:29;;;;;;;7.20;1.55;;;;;;;16.11;100.00;156568.25;5001415;28;20119;-73
2022/07/26 08:10:55;;;;;;;5.97;1.40;;;;;;;16.49;100.00;156664.78;4986739;28;20476;-73
2022/07/26 08:13:21;;;;;;;5.60;1.50;;;;;;;16.73;100.00;156725.31;4997650;28;20446;-74
2022/07/26 08:15:52;;;;;;;6.10;1.20;;;;;;;16.87;100.00;156758.84;4983757;28;20030;-73
2022/07/26 08:18:19;;;;;;;9.73;1.45;;;;;;;17.14;100.00;156827.13;4982849;28;20050;-73
2022/07/26 08:20:45;;;;;;;5.03;0.98;;;;;;;17.25;100.00;156854.16;4984621;28;20033;-75
2022/07/26 08:23:10;;;;;;;5.25;0.98;;;;;;;17.40;100.00;156892.78;4972215;28;20035;-74
2022/07/26 08:25:37;;;;;;;7.68;1.20;;;;;;;17.58;100.00;156937.91;4989622;28;20041;-75
2022/07/26 08:28:03;;;;;;;4.63;1.15;;;;;;;17.76;100.00;156981.69;4967962;28;20058;-75
2022/07/26 08:30:28;;;;;;;8.35;1.60;;;;;;;17.87;100.00;157010.09;4985326;28;20411;-75
2022/07/26 08:32:54;;;;;;;11.23;1.80;;;;;;;18.03;100.00;157051.34;4991252;28;20041;-75
2022/07/26 08:35:20;;;;;;;6.35;1.40;;;;;;;18.17;100.00;157086.13;5006096;28;20353;-75
2022/07/26 08:37:46;;;;;;;6.00;1.63;;;;;;;18.31;100.00;157120.94;4986674;28;20511;-75
2022/07/26 08:40:12;;;;;;;4.22;1.30;;;;;;;18.47;100.00;157160.88;4992547;28;20057;-75
2022/07/26 08:42:38;;;;;;;6.53;1.45;;;;;;;18.34;100.00;157128.66;4958040;28;20038;-73
2022/07/26 08:45:04;;;;;;;6.95;1.38;;;;;;;18.37;100.00;157136.41;4977009;28;20042;-74
2022/07/26 08:47:30;;;;;;;6.97;1.60;;;;;;;18.90;100.00;157267.94;4989200;28;20034;-74
2022/07/26 08:49:56;;;;;;;5.30;1.48;;;;;;;18.77;100.00;157236.94;4972063;28;20124;-74
2022/07/26 08:52:21;;;;;;;5.00;1.38;;;;;;;18.80;100.00;157244.75;4992818;28;20125;-75
2022/07/26 08:54:51;;;;;;;8.07;1.30;;;;;;;18.64;100.00;157203.41;4975496;28;20042;-76
2022/07/26 08:57:17;;;;;;;6.97;1.48;;;;;;;18.59;100.00;157191.84;5002669;28;20034;-76
2022/07/26 08:59:43;;;;;;;7.45;1.30;;;;;;;18.18;100.00;157088.72;5001315;28;20042;-75
2022/07/26 09:02:11;;;;;;;5.32;1.15;;;;;;;18.16;100.00;157082.25;4987115;28;20038;-75
2022/07/26 09:04:39;;;;;;;5.10;1.00;;;;;;;18.14;100.00;157078.41;4955864;28;20043;-74
2022/07/26 09:07:11;;;;;;;3.53;0.80;;;;;;;18.02;100.00;157048.75;5009494;28;20029;-75
2022/07/26 09:10:02;;;;;;;7.88;0.93;;;;;;;18.36;100.00;157133.81;4995400;28;20129;-73
2022/07/26 09:12:29;;;;;;;5.05;1.00;;;;;;;18.51;100.00;157169.91;5001790;28;20035;-77
2022/07/26 09:14:56;;;;;;;4.85;1.05;;;;;;;18.72;100.00;157222.75;4970902;28;20046;-74
2022/07/26 09:17:35;;;;;;;4.47;1.10;;;;;;;18.83;100.00;157252.44;4988396;28;20084;-74
2022/07/26 09:20:23;;;;;;;5.18;1.20;;;;;;;18.79;100.00;157242.09;5004700;28;20053;-74
2022/07/26 09:23:05;;;;;;;6.05;0.90;;;;;;;18.52;100.00;157173.78;4998223;28;20026;-74
2022/07/26 09:25:34;;;;;;;5.68;1.35;;;;;;;17.98;100.00;157038.44;5000417;28;20092;-73
2022/07/26 09:28:00;;;;;;;5.43;0.93;;;;;;;17.73;100.00;156975.28;4978493;28;20031;-75
2022/07/26 09:30:31;;;;;;;2.67;0.70;;;;;;;17.61;100.00;156945.66;4976753;28;20573;-76
2022/07/26 09:32:58;;;;;;;8.57;1.00;;;;;;;17.58;100.00;156937.91;4972182;28;20042;-74
2022/07/26 09:35:24;;;;;;;3.17;0.55;;;;;;;17.78;100.00;156988.16;5004761;28;20125;-75
2022/07/26 09:37:50;;;;;;;8.43;1.40;;;;;;;18.01;100.00;157044.91;5006898;28;20713;-75
2022/07/26 09:40:17;;;;;;;4.28;0.85;;;;;;;18.28;100.00;157114.47;4985309;28;20491;-74
2022/07/26 09:43:00;;;;;;;6.75;1.00;;;;;;;18.72;100.00;157224.03;5005241;28;20822;-76
2022/07/26 09:45:27;;;;;;;3.55;0.85;;;;;;;19.08;100.00;157313.06;4971924;28;20042;-75
2022/07/26 09:47:53;;;;;;;3.00;0.70;;;;;;;18.78;98.69;157238.22;4973040;28;20034;-76
2022/07/26 09:50:25;;;;;;;6.47;0.98;;;;;;;18.83;99.90;157252.44;5003304;28;20038;-72
2022/07/26 09:53:01;;;;;;;6.30;0.93;;;;;;;18.93;100.00;157275.66;4993825;28;20062;-76
2022/07/26 09:55:28;;;;;;;5.47;0.80;;;;;;;18.71;100.00;157220.19;4971017;28;20324;-75
2022/07/26 09:57:54;;;;;;;5.53;1.20;;;;;;;18.75;100.00;157230.50;4985338;28;20534;-73
2022/07/26 10:00:20;;;;;;;5.32;1.00;;;;;;;18.86;100.00;157260.19;4980198;28;20082;-74
2022/07/26 10:02:46;;;;;;;3.70;0.57;;;;;;;18.80;99.66;157243.41;5004696;28;20485;-75
2022/07/26 10:05:12;;;;;;;6.07;0.75;;;;;;;18.76;97.92;157233.06;4985967;28;20050;-74
2022/07/26 10:07:37;;;;;;;4.75;0.88;;;;;;;19.13;100.00;157327.22;4973589;28;20072;-76
2022/07/26 10:10:10;;;;;;;6.60;0.98;;;;;;;19.44;95.46;157404.63;4985586;28;20117;-74
2022/07/26 10:12:36;;;;;;;5.60;0.80;;;;;;;19.21;94.38;157346.56;4987344;28;20069;-73
2022/07/26 10:15:03;;;;;;;8.05;0.82;;;;;;;19.03;100.00;157301.47;4974314;28;20127;-74
2022/07/26 10:17:28;;;;;;;6.25;1.00;;;;;;;19.20;92.96;157344.03;4979853;28;20034;-74
2022/07/26 10:19:56;;;;;;;4.82;0.80;;;;;;;19.26;93.41;157360.75;4968960;28;20076;-73
2022/07/26 10:22:23;;;;;;;2.67;0.60;;;;;;;19.28;95.22;157363.34;4967384;28;20034;-73
2022/07/26 10:24:52;;;;;;;6.00;0.90;;;;;;;19.68;94.68;157463.94;4949143;28;20034;-74
2022/07/26 10:27:39;;;;;;;4.53;0.90;;;;;;;20.15;82.59;157583.94;4988161;28;20762;-75
2022/07/26 10:30:26;;;;;;;5.22;1.15;;;;;;;20.36;83.54;157635.56;4962444;28;20066;-74
2022/07/26 10:32:55;;;;;;;3.40;0.80;;;;;;;20.65;83.28;157707.91;4969174;28;20491;-76
2022/07/26 10:35:33;;;;;;;5.85;1.00;;;;;;;20.84;82.98;157756.94;4983684;28;20050;-75
2022/07/26 10:38:07;;;;;;;6.68;1.05;;;;;;;20.78;82.67;157741.47;4992939;28;20109;-75
2022/07/26 10:40:34;;;;;;;6.25;0.95;;;;;;;21.34;80.72;157883.44;4981722;28;20038;-75
2022/07/26 10:43:10;;;;;;;8.27;1.55;;;;;;;21.53;78.53;157931.25;4985872;28;20038;-73
2022/07/26 10:45:37;;;;;;;3.95;1.23;;;;;;;21.41;78.25;157900.22;4970424;28;20053;-74
2022/07/26 10:48:17;;;;;;;8.48;0.95;;;;;;;21.42;78.49;157902.81;4983227;28;20113;-76
2022/07/26 10:50:46;;;;;;;4.68;1.08;;;;;;;21.80;77.12;157997.13;5001866;28;20042;-76
2022/07/26 10:53:23;;;;;;;5.20;0.93;;;;;;;21.74;73.92;157984.19;4989748;28;20062;-74
2022/07/26 10:55:56;;;;;;;7.47;1.00;;;;;;;21.53;73.82;157931.25;4973586;28;20091;-73
2022/07/26 10:58:24;;;;;;;4.00;0.85;;;;;;;21.33;72.86;157880.84;5005001;28;21238;-76
2022/07/26 11:00:55;;;;;;;4.38;0.80;;;;;;;21.90;78.24;158022.94;5002614;28;20034;-75
2022/07/26 11:03:21;;;;;;;5.63;1.52;;;;;;;21.45;73.61;157909.28;4988321;28;20515;-76
2022/07/26 11:05:48;;;;;;;4.90;0.70;;;;;;;20.92;71.59;157777.56;4997549;28;20042;-76
2022/07/26 11:08:13;;;;;;;2.78;0.80;;;;;;;20.47;71.51;157663.94;4985814;28;20042;-75
2022/07/26 11:10:41;;;;;;;2.17;0.52;;;;;;;20.42;75.05;157652.34;4992699;28;20039;-75
2022/07/26 11:13:08;;;;;;;9.63;1.00;;;;;;;20.60;75.90;157696.28;4986911;28;20050;-74
2022/07/26 11:15:37;;;;;;;3.38;0.88;;;;;;;20.25;74.47;157607.19;4985463;28;20042;-75